createdAt,value
2023-03-05T00:00:19.979Z,8.02
2023-03-05T00:02:48.962Z,8.08
2023-03-05T00:05:18.232Z,8.01
2023-03-05T00:07:50.264Z,8.17
2023-03-05T00:10:19.522Z,7.99
2023-03-05T00:12:47.880Z,7.75
2023-03-05T00:15:17.686Z,8.08
2023-03-05T00:17:45.966Z,7.83
2023-03-05T00:20:15.676Z,7.83
2023-03-05T00:22:43.930Z,7.92
2023-03-05T00:25:13.796Z,7.83
2023-03-05T00:27:42.860Z,8.13
2023-03-05T00:30:12.682Z,8.26
2023-03-05T00:32:41.889Z,8.45
2023-03-05T00:35:11.326Z,8.20
2023-03-05T00:37:40.291Z,8.25
2023-03-05T00:40:10.535Z,8.28
2023-03-05T00:42:39.271Z,7.63
2023-03-05T00:45:11.481Z,8.14
2023-03-05T00:47:40.062Z,8.18
2023-03-05T00:50:10.093Z,7.92
2023-03-05T00:52:40.042Z,7.79
2023-03-05T00:55:11.743Z,7.75
2023-03-05T00:57:40.329Z,8.29
2023-03-05T01:00:10.952Z,7.82
2023-03-05T01:02:41.844Z,7.84
2023-03-05T01:05:15.510Z,8.31
2023-03-05T01:07:43.852Z,8.34
2023-03-05T01:10:14.326Z,8.21
2023-03-05T01:12:43.290Z,7.89
2023-03-05T01:15:11.906Z,8.36
2023-03-05T01:17:40.392Z,8.21
2023-03-05T01:20:10.147Z,7.97
2023-03-05T01:22:38.873Z,7.99
2023-03-05T01:25:07.762Z,8.29
2023-03-05T01:27:36.467Z,8.31
2023-03-05T01:30:08.330Z,8.05
2023-03-05T01:32:37.872Z,8.06
2023-03-05T01:35:08.136Z,8.09
2023-03-05T01:37:37.358Z,7.99
2023-03-05T01:40:06.984Z,7.98
2023-03-05T01:42:36.130Z,8.17
2023-03-05T01:45:11.953Z,7.92
2023-03-05T01:47:41.270Z,8.22
2023-03-05T01:51:13.842Z,7.80
2023-03-05T01:53:43.205Z,7.81
2023-03-05T01:56:12.295Z,8.32
2023-03-05T01:58:41.742Z,7.94
2023-03-05T02:01:10.964Z,8.09
2023-03-05T02:03:42.049Z,8.41
2023-03-05T02:06:11.451Z,8.53
2023-03-05T02:08:39.960Z,8.22
2023-03-05T02:11:09.708Z,8.22
2023-03-05T02:13:41.750Z,8.29
2023-03-05T02:16:11.042Z,8.02
2023-03-05T02:18:39.871Z,8.50
2023-03-05T02:21:10.169Z,8.51
2023-03-05T02:23:39.884Z,8.26
2023-03-05T02:26:11.174Z,8.67
2023-03-05T02:28:51.282Z,8.04
2023-03-05T02:31:23.614Z,7.89
2023-03-05T02:33:54.978Z,8.05
2023-03-05T02:36:24.957Z,8.42
2023-03-05T02:38:59.325Z,8.12
2023-03-05T02:41:31.320Z,8.42
2023-03-05T02:44:01.760Z,8.21
2023-03-05T02:46:30.861Z,8.48
2023-03-05T02:49:00.541Z,8.53
2023-03-05T02:51:30.610Z,8.08
2023-03-05T02:54:01.372Z,8.54
2023-03-05T02:56:31.586Z,8.50
2023-03-05T02:59:02.010Z,8.55
2023-03-05T03:01:31.567Z,8.14
2023-03-05T03:04:01.673Z,8.40
2023-03-05T03:06:31.129Z,8.30
2023-03-05T03:09:01.586Z,8.61
2023-03-05T03:11:30.805Z,8.58
2023-03-05T03:14:01.066Z,8.37
2023-03-05T03:16:30.514Z,8.11
2023-03-05T03:19:00.416Z,8.66
2023-03-05T03:21:31.215Z,8.57
2023-03-05T03:24:01.461Z,8.51
2023-03-05T03:26:31.051Z,8.37
2023-03-05T03:29:00.773Z,8.26
2023-03-05T03:31:30.794Z,7.83
2023-03-05T03:34:00.302Z,8.37
2023-03-05T03:36:31.012Z,8.44
2023-03-05T03:39:00.880Z,8.78
2023-03-05T03:41:31.108Z,8.78
2023-03-05T03:44:00.425Z,8.88
2023-03-05T03:46:30.480Z,8.65
2023-03-05T03:49:01.503Z,8.56
2023-03-05T03:51:31.087Z,8.71
2023-03-05T03:54:01.467Z,8.95
2023-03-05T03:56:30.414Z,8.77
2023-03-05T03:58:59.730Z,8.67
2023-03-05T04:01:29.060Z,8.87
2023-03-05T04:03:58.787Z,8.85
2023-03-05T04:06:29.134Z,9.08
2023-03-05T04:09:00.052Z,8.95
2023-03-05T04:11:29.919Z,8.95
2023-03-05T04:14:00.151Z,9.05
2023-03-05T04:16:30.124Z,8.65
2023-03-05T04:19:00.045Z,8.76
2023-03-05T04:21:30.530Z,8.86
2023-03-05T04:23:59.800Z,9.18
2023-03-05T04:26:28.835Z,8.63
2023-03-05T04:28:59.324Z,8.24
2023-03-05T04:31:28.434Z,8.71
2023-03-05T04:33:58.733Z,8.88
2023-03-05T04:36:29.845Z,9.14
2023-03-05T04:39:00.123Z,8.98
2023-03-05T04:41:30.358Z,9.49
2023-03-05T04:44:00.092Z,8.94
2023-03-05T04:46:30.506Z,8.87
2023-03-05T04:49:00.988Z,9.62
2023-03-05T04:51:30.136Z,9.34
2023-03-05T04:54:00.138Z,9.78
2023-03-05T04:56:30.630Z,9.00
2023-03-05T04:59:00.632Z,9.63
2023-03-05T05:01:31.133Z,9.68
2023-03-05T05:04:01.563Z,9.68
2023-03-05T05:06:31.190Z,9.79
2023-03-05T05:09:01.602Z,9.45
2023-03-05T05:11:31.816Z,9.54
2023-03-05T05:14:00.798Z,10.00
2023-03-05T05:16:30.402Z,9.66
2023-03-05T05:19:00.395Z,9.67
2023-03-05T05:21:30.333Z,9.14
2023-03-05T05:24:00.222Z,9.90
2023-03-05T05:26:31.153Z,9.36
2023-03-05T05:29:01.146Z,9.98
2023-03-05T05:31:30.326Z,9.78
2023-03-05T05:34:00.640Z,9.58
2023-03-05T05:36:33.914Z,9.82
2023-03-05T05:39:03.031Z,9.71
2023-03-05T05:41:32.184Z,9.87
2023-03-05T05:44:01.439Z,9.61
2023-03-05T05:46:30.581Z,9.63
2023-03-05T05:49:01.802Z,10.07
2023-03-05T05:51:30.781Z,9.79
2023-03-05T05:54:00.585Z,9.83
2023-03-05T05:56:30.840Z,9.68
2023-03-05T05:59:00.410Z,9.61
2023-03-05T06:01:32.400Z,10.34
2023-03-05T06:04:02.101Z,9.68
2023-03-05T06:06:31.725Z,9.94
2023-03-05T06:09:01.837Z,9.97
2023-03-05T06:11:31.433Z,9.82
2023-03-05T06:14:04.134Z,9.88
2023-03-05T06:16:32.658Z,9.81
2023-03-05T06:19:04.864Z,9.94
2023-03-05T06:21:35.362Z,9.97
2023-03-05T06:24:04.197Z,9.80
2023-03-05T06:26:34.083Z,9.82
2023-03-05T06:29:03.640Z,9.91
2023-03-05T06:31:32.234Z,9.62
2023-03-05T06:34:04.455Z,9.32
2023-03-05T06:36:34.154Z,9.88
2023-03-05T06:39:02.874Z,9.78
2023-03-05T06:41:32.414Z,9.61
2023-03-05T06:44:03.717Z,9.89
2023-03-05T06:46:38.025Z,9.90
2023-03-05T06:49:10.358Z,9.95
2023-03-05T06:51:40.943Z,9.93
2023-03-05T06:54:16.011Z,10.29
2023-03-05T06:56:48.171Z,10.02
2023-03-05T06:59:18.688Z,9.87
2023-03-05T07:01:48.231Z,10.19
2023-03-05T07:04:17.983Z,10.02
2023-03-05T07:06:47.707Z,10.02
2023-03-05T07:09:17.184Z,10.02
2023-03-05T07:11:47.853Z,10.64
2023-03-05T07:14:16.930Z,10.16
2023-03-05T07:16:46.145Z,10.09
2023-03-05T07:19:14.974Z,10.28
2023-03-05T07:21:43.720Z,9.89
2023-03-05T07:24:14.160Z,10.47
2023-03-05T07:26:42.876Z,10.27
2023-03-05T07:29:11.473Z,10.22
2023-03-05T07:31:40.110Z,10.28
2023-03-05T07:34:08.801Z,10.20
2023-03-05T07:36:39.098Z,10.38
2023-03-05T07:39:08.163Z,10.27
2023-03-05T07:41:36.712Z,10.32
2023-03-05T07:44:06.521Z,9.93
2023-03-05T07:46:36.839Z,10.09
2023-03-05T07:49:06.266Z,10.18
2023-03-05T07:51:35.357Z,10.04
2023-03-05T07:54:04.040Z,10.14
2023-03-05T07:56:35.860Z,10.13
2023-03-05T07:59:07.660Z,10.46
2023-03-05T08:01:36.728Z,10.57
2023-03-05T08:04:07.733Z,10.04
2023-03-05T08:06:36.219Z,10.42
2023-03-05T08:09:04.889Z,10.51
2023-03-05T08:11:34.094Z,10.24
2023-03-05T08:14:02.758Z,10.31
2023-03-05T08:16:31.967Z,10.45
2023-03-05T08:19:02.566Z,10.35
2023-03-05T08:21:36.846Z,10.35
2023-03-05T08:24:09.338Z,10.26
2023-03-05T08:26:39.696Z,9.81
2023-03-05T08:29:10.511Z,10.15
2023-03-05T08:31:40.333Z,9.53
2023-03-05T08:34:09.549Z,9.72
2023-03-05T08:36:38.238Z,10.40
2023-03-05T08:39:10.872Z,9.89
2023-03-05T08:41:39.903Z,10.36
2023-03-05T08:44:08.546Z,10.40
2023-03-05T08:46:40.726Z,10.41
2023-03-05T08:49:11.757Z,10.23
2023-03-05T08:51:40.313Z,10.12
2023-03-05T08:54:10.960Z,10.34
2023-03-05T08:56:39.687Z,9.89
2023-03-05T08:59:09.456Z,10.56
2023-03-05T09:01:38.253Z,10.35
2023-03-05T09:04:07.074Z,10.36
2023-03-05T09:06:39.819Z,10.78
2023-03-05T09:09:10.329Z,10.06
2023-03-05T09:11:39.369Z,10.46
2023-03-05T09:14:08.107Z,9.92
2023-03-05T09:16:38.219Z,10.01
2023-03-05T09:19:13.671Z,10.39
2023-03-05T09:21:43.363Z,10.45
2023-03-05T09:24:12.584Z,9.83
2023-03-05T09:26:43.067Z,10.03
2023-03-05T09:29:13.049Z,10.17
2023-03-05T09:31:42.309Z,9.94
2023-03-05T09:34:12.418Z,10.11
2023-03-05T09:36:41.972Z,10.70
2023-03-05T09:39:10.337Z,10.44
2023-03-05T09:42:14.769Z,10.46
2023-03-05T09:44:52.603Z,10.39
2023-03-05T09:47:50.190Z,10.62
2023-03-05T09:50:43.063Z,10.18
2023-03-05T09:53:20.053Z,10.33
2023-03-05T09:55:53.700Z,9.85
2023-03-05T09:59:00.624Z,9.85
2023-03-05T10:01:40.502Z,10.03
2023-03-05T10:04:17.191Z,10.38
2023-03-05T10:07:00.664Z,10.75
2023-03-05T10:10:02.290Z,10.30
2023-03-05T10:12:44.652Z,10.67
2023-03-05T10:15:32.204Z,9.88
2023-03-05T10:18:11.641Z,9.93
2023-03-05T10:21:13.079Z,9.63
2023-03-05T10:24:12.273Z,10.06
2023-03-05T10:27:04.274Z,10.19
2023-03-05T10:29:56.090Z,10.50
2023-03-05T10:32:30.126Z,10.00
2023-03-05T10:35:22.185Z,10.88
2023-03-05T10:38:12.427Z,10.64
2023-03-05T10:40:52.823Z,10.39
2023-03-05T10:43:43.882Z,10.79
2023-03-05T10:46:22.079Z,9.97
2023-03-05T10:49:04.196Z,10.33
2023-03-05T10:51:42.431Z,10.72
2023-03-05T10:54:30.013Z,10.91
2023-03-05T10:57:18.379Z,10.69
2023-03-05T11:00:06.627Z,10.51
2023-03-05T11:02:53.030Z,10.70
2023-03-05T11:06:05.081Z,10.91
2023-03-05T11:08:38.618Z,10.32
2023-03-05T11:11:21.602Z,10.29
2023-03-05T11:13:57.477Z,11.01
2023-03-05T11:16:31.756Z,10.37
2023-03-05T11:19:25.418Z,10.49
2023-03-05T11:22:22.516Z,10.90
2023-03-05T11:25:17.608Z,10.75
2023-03-05T11:27:56.617Z,10.48
2023-03-05T11:30:38.342Z,10.52
2023-03-05T11:33:12.145Z,10.40
2023-03-05T11:35:44.111Z,10.38
2023-03-05T11:38:24.561Z,10.46
2023-03-05T11:40:59.170Z,10.31
2023-03-05T11:43:28.150Z,10.45
2023-03-05T11:46:04.231Z,10.99
2023-03-05T11:48:40.786Z,10.56
2023-03-05T11:51:23.738Z,10.34
2023-03-05T11:54:00.587Z,10.89
2023-03-05T11:56:38.596Z,10.67
2023-03-05T11:59:21.500Z,10.77
2023-03-05T12:01:55.920Z,10.45
2023-03-05T12:04:25.861Z,10.42
2023-03-05T12:07:04.872Z,10.67
2023-03-05T12:09:43.407Z,10.52
2023-03-05T12:12:39.803Z,10.99
2023-03-05T12:15:39.773Z,11.20
2023-03-05T12:18:13.141Z,10.81
2023-03-05T12:21:06.609Z,11.25
2023-03-05T12:23:54.437Z,10.71
2023-03-05T12:27:00.671Z,10.94
2023-03-05T12:29:52.970Z,10.98
2023-03-05T12:32:31.954Z,10.84
2023-03-05T12:35:01.301Z,10.28
2023-03-05T12:37:30.692Z,10.43
2023-03-05T12:40:12.781Z,10.66
2023-03-05T12:42:54.243Z,10.75
2023-03-05T12:45:23.260Z,10.41
2023-03-05T12:47:58.753Z,10.43
2023-03-05T12:50:30.670Z,10.46
2023-03-05T12:53:19.664Z,10.37
2023-03-05T12:56:18.059Z,10.50
2023-03-05T12:58:59.177Z,10.23
2023-03-05T13:01:47.809Z,10.48
2023-03-05T13:04:26.186Z,10.19
2023-03-05T13:07:15.037Z,10.00
2023-03-05T13:09:56.684Z,9.81
2023-03-05T13:12:29.898Z,9.64
2023-03-05T13:14:59.125Z,9.53
2023-03-05T13:17:45.075Z,9.90
2023-03-05T13:20:29.832Z,10.35
2023-03-05T13:23:12.912Z,10.01
2023-03-05T13:25:43.352Z,10.05
2023-03-05T13:28:18.248Z,10.26
2023-03-05T13:30:54.814Z,9.37
2023-03-05T13:33:30.308Z,9.77
2023-03-05T13:36:00.488Z,9.64
2023-03-05T13:38:37.074Z,9.51
2023-03-05T13:41:12.127Z,9.30
2023-03-05T13:44:02.650Z,9.46
2023-03-05T13:46:33.110Z,9.69
2023-03-05T13:49:24.015Z,9.76
2023-03-05T13:51:55.991Z,9.54
2023-03-05T13:54:26.404Z,9.69
2023-03-05T13:56:59.562Z,9.42
2023-03-05T13:59:32.385Z,9.47
2023-03-05T14:02:07.371Z,9.24
2023-03-05T14:04:41.101Z,9.42
2023-03-05T14:07:41.347Z,9.54
2023-03-05T14:10:28.766Z,9.36
2023-03-05T14:13:00.554Z,9.16
2023-03-05T14:15:33.762Z,9.40
2023-03-05T14:18:13.316Z,9.23
2023-03-05T14:21:03.787Z,9.22
2023-03-05T14:23:38.092Z,9.06
2023-03-05T14:26:25.051Z,9.39
2023-03-05T14:29:03.721Z,8.83
2023-03-05T14:31:47.172Z,9.18
2023-03-05T14:34:31.332Z,9.12
2023-03-05T14:37:06.956Z,9.10
2023-03-05T14:40:08.255Z,8.18
2023-03-05T14:42:42.777Z,8.79
2023-03-05T14:45:23.788Z,8.74
2023-03-05T14:47:56.036Z,9.25
2023-03-05T14:50:28.628Z,9.08
2023-03-05T14:53:01.210Z,8.89
2023-03-05T14:55:33.175Z,8.62
2023-03-05T14:58:08.132Z,8.74
2023-03-05T15:00:37.552Z,8.78
2023-03-05T15:03:06.730Z,8.79
2023-03-05T15:05:38.337Z,8.64
2023-03-05T15:08:14.560Z,8.39
2023-03-05T15:10:43.431Z,8.34
2023-03-05T15:13:14.518Z,8.36
2023-03-05T15:15:45.341Z,8.42
2023-03-05T15:18:18.284Z,8.21
2023-03-05T15:20:49.850Z,8.39
2023-03-05T15:23:18.459Z,7.88
2023-03-05T15:25:46.981Z,7.53
2023-03-05T15:28:16.423Z,8.01
2023-03-05T15:30:47.647Z,7.32
2023-03-05T15:33:18.761Z,7.45
2023-03-05T15:35:48.068Z,7.93
2023-03-05T15:38:18.559Z,7.91
2023-03-05T15:40:47.848Z,7.79
2023-03-05T15:43:18.280Z,7.51
2023-03-05T15:45:48.638Z,7.73
2023-03-05T15:48:20.281Z,7.93
2023-03-05T15:50:48.627Z,7.94
2023-03-05T15:53:18.945Z,7.67
2023-03-05T15:55:47.823Z,7.83
2023-03-05T15:58:18.297Z,7.90
2023-03-05T16:00:47.967Z,8.02
2023-03-05T16:03:16.801Z,7.90
2023-03-05T16:05:45.977Z,7.34
2023-03-05T16:08:15.422Z,7.78
2023-03-05T16:10:44.384Z,7.96
2023-03-05T16:13:20.612Z,7.57
2023-03-05T16:15:54.333Z,7.17
2023-03-05T16:18:24.354Z,6.97
2023-03-05T16:20:53.063Z,7.16
2023-03-05T16:23:23.812Z,7.54
2023-03-05T16:25:52.820Z,7.30
2023-03-05T16:28:22.580Z,7.24
2023-03-05T16:31:01.794Z,6.99
2023-03-05T16:33:30.878Z,7.47
2023-03-05T16:36:21.677Z,6.86
2023-03-05T16:38:53.048Z,7.18
2023-03-05T16:41:24.458Z,7.38
2023-03-05T16:43:56.861Z,7.46
2023-03-05T16:46:30.395Z,7.33
2023-03-05T16:49:01.540Z,6.73
2023-03-05T16:51:30.720Z,7.15
2023-03-05T16:54:02.278Z,6.63
2023-03-05T16:56:31.404Z,6.83
2023-03-05T16:59:01.415Z,7.08
2023-03-05T17:01:31.511Z,6.99
2023-03-05T17:04:03.115Z,6.89
2023-03-05T17:06:34.038Z,7.25
2023-03-05T17:09:04.349Z,7.01
2023-03-05T17:11:35.809Z,6.86
2023-03-05T17:14:04.806Z,7.16
2023-03-05T17:16:34.962Z,6.49
2023-03-05T17:19:04.112Z,6.64
2023-03-05T17:21:32.538Z,6.88
2023-03-05T17:24:02.235Z,6.87
2023-03-05T17:26:33.353Z,6.49
2023-03-05T17:29:02.840Z,6.42
2023-03-05T17:31:32.321Z,6.86
2023-03-05T17:34:01.089Z,6.65
2023-03-05T17:36:32.695Z,7.05
2023-03-05T17:39:02.132Z,6.81
2023-03-05T17:41:31.787Z,6.69
2023-03-05T17:44:02.014Z,6.68
2023-03-05T17:46:32.044Z,6.24
2023-03-05T17:49:01.239Z,6.86
2023-03-05T17:51:30.904Z,6.51
2023-03-05T17:54:00.771Z,6.73
2023-03-05T17:56:31.880Z,6.65
2023-03-05T17:59:03.046Z,6.74
2023-03-05T18:01:35.851Z,6.75
2023-03-05T18:04:04.420Z,6.69
2023-03-05T18:06:33.495Z,6.53
2023-03-05T18:09:02.395Z,6.72
2023-03-05T18:11:32.204Z,6.25
2023-03-05T18:14:02.540Z,6.47
2023-03-05T18:16:31.810Z,6.39
2023-03-05T18:19:00.825Z,6.68
2023-03-05T18:21:31.349Z,6.61
2023-03-05T18:24:01.220Z,5.89
2023-03-05T18:26:30.586Z,6.55
2023-03-05T18:29:02.096Z,6.31
2023-03-05T18:31:30.862Z,6.43
2023-03-05T18:34:01.244Z,6.17
2023-03-05T18:36:30.813Z,6.02
2023-03-05T18:39:00.662Z,6.46
2023-03-05T18:41:32.056Z,6.18
2023-03-05T18:44:03.433Z,5.94
2023-03-05T18:46:32.539Z,6.20
2023-03-05T18:49:01.615Z,6.17
2023-03-05T18:51:32.509Z,5.93
2023-03-05T18:54:04.122Z,6.17
2023-03-05T18:56:33.062Z,6.04
2023-03-05T18:59:02.597Z,6.02
2023-03-05T19:01:32.014Z,5.45
2023-03-05T19:04:00.934Z,5.43
2023-03-05T19:06:30.632Z,5.36
2023-03-05T19:09:06.215Z,6.29
2023-03-05T19:11:35.041Z,6.45
2023-03-05T19:14:04.484Z,6.02
2023-03-05T19:16:40.935Z,6.30
2023-03-05T19:19:23.676Z,5.97
2023-03-05T19:22:00.451Z,5.87
2023-03-05T19:24:31.805Z,6.02
2023-03-05T19:27:03.980Z,5.82
2023-03-05T19:29:33.493Z,6.30
2023-03-05T19:32:02.581Z,6.20
2023-03-05T19:34:32.798Z,5.92
2023-03-05T19:37:02.568Z,5.83
2023-03-05T19:39:31.855Z,6.08
2023-03-05T19:42:01.530Z,5.87
2023-03-05T19:44:32.564Z,6.22
2023-03-05T19:47:02.637Z,5.79
2023-03-05T19:49:34.407Z,5.62
2023-03-05T19:52:03.799Z,5.70
2023-03-05T19:54:33.190Z,5.95
2023-03-05T19:57:02.450Z,6.17
2023-03-05T19:59:31.752Z,5.67
2023-03-05T20:02:02.113Z,5.57
2023-03-05T20:04:31.850Z,5.63
2023-03-05T20:07:01.365Z,5.80
2023-03-05T20:09:31.224Z,5.87
2023-03-05T20:12:05.178Z,5.95
2023-03-05T20:14:36.147Z,4.29
2023-03-05T20:17:06.302Z,5.40
2023-03-05T20:19:34.870Z,5.74
2023-03-05T20:22:04.354Z,5.41
2023-03-05T20:24:34.212Z,5.90
2023-03-05T20:27:03.446Z,5.65
2023-03-05T20:29:32.606Z,5.83
2023-03-05T20:32:02.905Z,5.97
2023-03-05T20:34:33.038Z,5.62
2023-03-05T20:37:02.789Z,5.53
2023-03-05T20:39:32.112Z,5.21
2023-03-05T20:42:02.557Z,5.46
2023-03-05T20:44:33.349Z,5.33
2023-03-05T20:47:13.190Z,5.24
2023-03-05T20:49:42.724Z,5.17
2023-03-05T20:52:11.969Z,5.09
2023-03-05T20:54:40.677Z,5.39
2023-03-05T20:57:11.028Z,5.64
2023-03-05T20:59:40.380Z,5.21
2023-03-05T21:02:11.999Z,4.94
2023-03-05T21:04:40.611Z,4.91
2023-03-05T21:07:10.734Z,5.57
2023-03-05T21:09:39.785Z,5.09
2023-03-05T21:12:10.544Z,4.96
2023-03-05T21:14:42.209Z,4.89
2023-03-05T21:17:13.033Z,5.46
2023-03-05T21:19:42.733Z,5.25
2023-03-05T21:22:12.204Z,5.27
2023-03-05T21:24:56.150Z,5.00
2023-03-05T21:27:24.540Z,4.91
2023-03-05T21:29:52.988Z,5.29
2023-03-05T21:32:22.430Z,5.21
2023-03-05T21:34:53.082Z,4.67
2023-03-05T21:37:22.507Z,4.96
2023-03-05T21:39:51.137Z,5.23
2023-03-05T21:42:20.306Z,5.21
2023-03-05T21:44:48.867Z,5.44
2023-03-05T21:47:19.520Z,4.97
2023-03-05T21:49:48.506Z,4.91
2023-03-05T21:52:19.940Z,4.98
2023-03-05T21:54:49.084Z,5.30
2023-03-05T21:57:18.683Z,4.92
2023-03-05T21:59:47.964Z,5.32
2023-03-05T22:02:20.127Z,5.17
2023-03-05T22:04:49.302Z,4.91
2023-03-05T22:07:20.640Z,5.20
2023-03-05T22:09:56.084Z,5.17
2023-03-05T22:12:39.786Z,3.66
2023-03-05T22:15:09.910Z,4.88
2023-03-05T22:17:40.104Z,4.97
2023-03-05T22:20:09.682Z,5.03
2023-03-05T22:22:40.208Z,5.00
2023-03-05T22:25:09.711Z,4.96
2023-03-05T22:27:38.714Z,5.05
2023-03-05T22:30:08.210Z,5.47
2023-03-05T22:32:37.358Z,5.48
2023-03-05T22:35:08.292Z,5.19
2023-03-05T22:37:36.800Z,5.35
2023-03-05T22:40:06.549Z,5.30
2023-03-05T22:42:38.272Z,5.37
2023-03-05T22:45:07.862Z,5.03
2023-03-05T22:47:36.800Z,5.50
2023-03-05T22:50:08.833Z,5.51
2023-03-05T22:52:38.721Z,5.13
2023-03-05T22:55:08.667Z,5.65
2023-03-05T22:57:39.726Z,5.11
2023-03-05T23:00:15.510Z,5.54
2023-03-05T23:02:45.801Z,5.39
2023-03-05T23:05:14.612Z,5.52
2023-03-05T23:07:44.282Z,5.15
2023-03-05T23:10:15.669Z,5.45
2023-03-05T23:12:50.665Z,5.08
2023-03-05T23:15:24.271Z,5.09
2023-03-05T23:17:53.190Z,5.68
2023-03-05T23:20:28.265Z,5.00
2023-03-05T23:22:59.507Z,5.42
2023-03-05T23:25:32.353Z,5.13
2023-03-05T23:28:02.793Z,5.39
2023-03-05T23:30:35.993Z,5.28
2023-03-05T23:33:06.721Z,5.75
2023-03-05T23:35:44.212Z,5.25
2023-03-05T23:38:16.885Z,5.41
2023-03-05T23:40:48.799Z,5.58
2023-03-05T23:43:20.178Z,5.61
2023-03-05T23:45:50.524Z,5.40
2023-03-05T23:48:20.071Z,5.61
2023-03-05T23:50:56.040Z,5.35
2023-03-05T23:53:31.891Z,5.41
2023-03-05T23:56:02.235Z,5.52
2023-03-05T23:58:31.963Z,4.69
